Terminal Aerodrome Forecast
Issued by NWS Nashville, TN

Home | Current Version | Previous Version | Text Only | Print | Product List | Glossary On
Versions: 1 2 3 4 5 6 7 8 9 10 11 12 13 14 15 16 17 18 19 20 21
000
FTUS44 KOHX 222000 AAD
TAFCSV
TAF AMD
KCSV 222045Z 2221/2318 15009KT P6SM -SHRA OVC010
      TEMPO 2221/2301 4SM BR OVC007
     FM230100 16010KT 5SM BR VCSH OVC007
     FM230600 17010KT 4SM BR OVC006
     FM231200 18006KT 4SM -SHRA BR OVC006=

USA.gov is the U.S. government's official web portal to all federal, state and local government web resources and services.